Odenburg, Louisiana
Current Conditions -  °F | °C
As of 6:55 AM on Saturday 20 Dec 2014 (Local Time) from KHZR Reporting Station
Overcast Overcast  
Wind Chill: 43°   Ceiling: 600
Heat Index: 47°   Visibility: 10mi
Dew Point: 46°   Wind: 8mph
Humidity: 95%   Direction: 360°N
Pressure: 30.16"   Gusts: NA
Location:  30.9317°N, 91.8606°W
Report Text: KHZR 201255Z AUTO 36007KT 10SM OVC006 09/08 A3016 RMK AO2 T00850077
Loading
Personal Weather Stations






























Interactive Weather Map New forecast layout! Learn more

10-Day Weather Forecast

Advertisements
Track Severe Weather on mobile